Time;durP1;ratioP1;P1;durP2;ratioP2;P2;SDS_P1;SDS_P2;PMS_P1;PMS_P2;Temp;Humidity;BMP_temperature;BMP_pressure;BME280_temperature;BME280_humidity;BME280_pressure;Samples;Min_cycle;Max_cycle;Signal;HPM_P1;HPM_P2
2024/03/20 00:01:48;;;;;;;7.22;6.82;;;0.30;99.90;;;;;;4829697;29;20211;-79
2024/03/20 00:04:14;;;;;;;14.10;7.60;;;0.20;99.90;;;;;;4816469;29;20518;-81
2024/03/20 00:06:39;;;;;;;7.87;7.13;;;0.20;99.90;;;;;;4815729;29;20238;-80
2024/03/20 00:09:07;;;;;;;7.32;6.85;;;0.30;99.90;;;;;;4828933;29;20544;-80
2024/03/20 00:11:33;;;;;;;8.50;7.30;;;0.20;99.90;;;;;;4833264;29;20336;-81
2024/03/20 00:14:07;;;;;;;7.85;7.05;;;0.40;99.90;;;;;;4825529;29;20226;-81
2024/03/20 00:16:36;;;;;;;11.48;6.95;;;0.20;99.90;;;;;;4840698;29;20201;-82
2024/03/20 00:19:11;;;;;;;7.60;6.70;;;0.10;99.90;;;;;;4830712;29;20215;-82
2024/03/20 00:21:37;;;;;;;11.52;10.57;;;0.20;99.90;;;;;;4830408;29;20224;-82
2024/03/20 00:24:04;;;;;;;9.73;8.80;;;0.20;99.90;;;;;;4826567;29;20230;-82
2024/03/20 00:26:33;;;;;;;6.35;5.80;;;0.20;99.90;;;;;;4818021;29;20461;-81
2024/03/20 00:29:01;;;;;;;9.23;8.52;;;0.40;99.90;;;;;;4840203;29;20235;-83
2024/03/20 00:31:28;;;;;;;9.43;8.77;;;0.30;99.90;;;;;;4826866;29;20239;-78
2024/03/20 00:33:54;;;;;;;10.50;7.10;;;0.10;99.90;;;;;;4828522;29;20210;-79
2024/03/20 00:36:21;;;;;;;8.40;7.15;;;0.10;99.90;;;;;;4834938;29;20225;-81
2024/03/20 00:38:48;;;;;;;12.23;8.38;;;0.10;99.90;;;;;;4831518;29;20224;-80
2024/03/20 00:41:15;;;;;;;11.02;7.63;;;0.00;99.90;;;;;;4835363;29;20206;-81
2024/03/20 00:43:41;;;;;;;4.03;3.70;;;0.10;99.90;;;;;;4817231;29;20217;-80
2024/03/20 00:46:07;;;;;;;15.43;10.23;;;0.00;99.90;;;;;;4830448;29;20208;-78
2024/03/20 00:48:33;;;;;;;13.50;9.73;;;0.00;99.90;;;;;;4837606;29;20761;-78
2024/03/20 00:51:00;;;;;;;4.70;4.43;;;0.10;99.90;;;;;;4833515;29;20329;-78
2024/03/20 00:53:26;;;;;;;4.82;4.57;;;0.10;99.90;;;;;;4830461;29;20219;-79
2024/03/20 00:55:52;;;;;;;11.55;9.30;;;0.00;99.90;;;;;;4815634;29;20230;-79
2024/03/20 00:58:18;;;;;;;13.15;6.80;;;-0.10;99.90;;;;;;4834050;29;20229;-78
2024/03/20 01:00:46;;;;;;;9.32;8.45;;;-0.20;99.90;;;;;;4815687;29;20418;-78
2024/03/20 01:03:13;;;;;;;7.28;6.75;;;-0.20;99.90;;;;;;4830517;29;20202;-79
2024/03/20 01:05:39;;;;;;;4.57;4.05;;;-0.30;99.90;;;;;;4830719;29;20507;-79
2024/03/20 01:08:06;;;;;;;8.63;7.88;;;-0.20;99.90;;;;;;4838739;29;20213;-79
2024/03/20 01:10:32;;;;;;;7.60;6.20;;;-0.20;99.90;;;;;;4834522;29;20217;-79
2024/03/20 01:12:57;;;;;;;7.50;7.03;;;-0.20;99.90;;;;;;4821678;29;20264;-79
2024/03/20 01:15:25;;;;;;;8.23;7.43;;;-0.20;99.90;;;;;;4833639;29;20465;-79
2024/03/20 01:17:52;;;;;;;11.13;9.52;;;-0.20;99.90;;;;;;4830680;29;20217;-80
2024/03/20 01:20:18;;;;;;;11.15;8.13;;;-0.10;99.90;;;;;;4832423;29;20490;-80
2024/03/20 01:22:45;;;;;;;5.70;5.28;;;0.10;99.90;;;;;;4834829;29;20205;-81
2024/03/20 01:25:11;;;;;;;16.02;8.23;;;0.30;99.90;;;;;;4838672;29;20520;-81
2024/03/20 01:27:38;;;;;;;6.28;5.88;;;0.20;99.90;;;;;;4834748;29;20517;-80
2024/03/20 01:30:05;;;;;;;8.10;7.05;;;0.20;99.90;;;;;;4840918;29;20228;-79
2024/03/20 01:32:31;;;;;;;5.43;5.05;;;0.10;99.90;;;;;;4831623;29;20241;-79
2024/03/20 01:34:57;;;;;;;6.30;5.82;;;0.10;99.90;;;;;;4835096;29;20244;-77
2024/03/20 01:37:24;;;;;;;9.15;8.30;;;0.10;99.90;;;;;;4815260;29;20211;-80
2024/03/20 01:39:50;;;;;;;7.07;5.97;;;-0.10;99.90;;;;;;4833940;29;20281;-79
2024/03/20 01:42:17;;;;;;;6.00;5.60;;;-0.10;99.90;;;;;;4830265;29;20219;-78
2024/03/20 01:44:42;;;;;;;16.37;6.03;;;-0.20;99.90;;;;;;4823113;29;20276;-79
2024/03/20 01:47:08;;;;;;;13.50;8.85;;;-0.30;99.90;;;;;;4830689;29;20521;-80
2024/03/20 01:49:35;;;;;;;8.57;7.72;;;-0.40;99.90;;;;;;4814956;29;20216;-79
2024/03/20 01:52:02;;;;;;;7.90;7.43;;;-0.40;99.90;;;;;;4830308;29;20229;-77
2024/03/20 01:54:29;;;;;;;5.75;5.38;;;-0.30;99.90;;;;;;4831523;29;20503;-81
2024/03/20 01:56:56;;;;;;;12.45;7.10;;;-0.40;99.90;;;;;;4838873;29;20210;-78
2024/03/20 01:59:22;;;;;;;9.27;7.20;;;-0.30;99.90;;;;;;4840184;29;20238;-79
2024/03/20 02:01:49;;;;;;;10.43;6.18;;;-0.30;99.90;;;;;;4842277;29;20469;-80
2024/03/20 02:04:16;;;;;;;4.72;4.53;;;-0.50;99.90;;;;;;4832757;29;20202;-77
2024/03/20 02:06:42;;;;;;;6.10;3.88;;;-0.40;99.90;;;;;;4832961;29;20210;-78
2024/03/20 02:09:09;;;;;;;9.20;7.70;;;-0.40;99.90;;;;;;4831319;29;20211;-79
2024/03/20 02:11:35;;;;;;;6.25;5.75;;;-0.30;99.90;;;;;;4831612;29;20426;-78
2024/03/20 02:14:02;;;;;;;9.00;8.30;;;-0.50;99.90;;;;;;4839938;29;20204;-78
2024/03/20 02:16:34;;;;;;;7.82;7.10;;;-0.50;99.90;;;;;;4824251;29;20449;-79
2024/03/20 02:18:59;;;;;;;11.20;5.32;;;-0.60;99.90;;;;;;4827052;29;20375;-80
2024/03/20 02:21:26;;;;;;;7.63;7.03;;;-0.60;99.90;;;;;;4829246;29;20218;-80
2024/03/20 02:23:56;;;;;;;9.93;9.27;;;-0.60;99.90;;;;;;4823326;29;20228;-78
2024/03/20 02:26:22;;;;;;;11.55;8.63;;;-0.70;99.90;;;;;;4833802;29;20680;-77
2024/03/20 02:28:48;;;;;;;17.02;8.23;;;-0.50;99.90;;;;;;4839050;29;20209;-78
2024/03/20 02:31:15;;;;;;;5.80;5.40;;;-0.40;99.90;;;;;;4838190;29;20260;-79
2024/03/20 02:33:41;;;;;;;6.93;6.33;;;-0.50;99.90;;;;;;4821376;29;20811;-76
2024/03/20 02:36:07;;;;;;;5.25;3.88;;;-0.50;99.90;;;;;;4829253;29;20489;-78
2024/03/20 02:38:35;;;;;;;8.07;7.10;;;-0.60;99.90;;;;;;4829495;29;20210;-78
2024/03/20 02:41:06;;;;;;;5.35;5.05;;;-0.90;99.90;;;;;;4813911;29;20230;-76
2024/03/20 02:43:34;;;;;;;6.15;5.78;;;-0.80;99.90;;;;;;4817768;29;20261;-77
2024/03/20 02:46:00;;;;;;;8.98;8.38;;;-0.80;99.90;;;;;;4827830;29;20315;-77
2024/03/20 02:48:26;;;;;;;7.23;6.63;;;-0.90;99.90;;;;;;4829154;29;20222;-79
2024/03/20 02:50:51;;;;;;;11.33;7.57;;;-0.90;99.90;;;;;;4833426;29;20474;-79
2024/03/20 02:53:17;;;;;;;8.10;7.30;;;-0.80;99.90;;;;;;4830576;29;20446;-77
2024/03/20 02:55:45;;;;;;;7.93;7.33;;;-0.90;99.90;;;;;;4833295;29;20213;-79
2024/03/20 02:58:11;;;;;;;7.35;6.75;;;-1.00;99.90;;;;;;4838117;29;20449;-79
2024/03/20 03:00:39;;;;;;;11.23;10.13;;;-0.90;99.90;;;;;;4836152;29;20221;-78
2024/03/20 03:03:05;;;;;;;11.32;8.43;;;-0.90;99.90;;;;;;4829060;29;20209;-77
2024/03/20 03:05:31;;;;;;;11.27;10.13;;;-1.00;99.90;;;;;;4824617;29;20213;-78
2024/03/20 03:07:57;;;;;;;8.05;7.45;;;-1.00;99.90;;;;;;4828961;29;20213;-78
2024/03/20 03:10:24;;;;;;;7.43;5.47;;;-0.90;99.90;;;;;;4852345;29;20216;-78
2024/03/20 03:12:51;;;;;;;9.93;6.75;;;-0.90;99.90;;;;;;4830135;29;20242;-77
2024/03/20 03:15:19;;;;;;;16.92;7.47;;;-0.90;99.90;;;;;;4833738;29;20745;-79
2024/03/20 03:17:46;;;;;;;7.82;7.18;;;-0.80;99.90;;;;;;4827535;29;20334;-76
2024/03/20 03:20:15;;;;;;;9.90;5.65;;;-0.80;99.90;;;;;;4835177;29;20193;-78
2024/03/20 03:22:45;;;;;;;4.47;4.10;;;-0.80;99.90;;;;;;4842181;29;20213;-80
2024/03/20 03:25:12;;;;;;;7.78;7.15;;;-0.80;99.90;;;;;;4837449;29;20199;-79
2024/03/20 03:27:39;;;;;;;8.82;6.82;;;-0.80;99.90;;;;;;4837633;29;20296;-80
2024/03/20 03:30:08;;;;;;;8.30;7.53;;;-0.70;99.90;;;;;;4832696;29;20221;-78
2024/03/20 03:32:34;;;;;;;6.55;5.90;;;-0.80;99.90;;;;;;4815046;29;20437;-79
2024/03/20 03:35:01;;;;;;;6.97;4.80;;;-0.80;99.90;;;;;;4830360;29;20208;-79
2024/03/20 03:37:27;;;;;;;8.75;5.72;;;-0.70;99.90;;;;;;4839365;29;20297;-79
2024/03/20 03:39:53;;;;;;;8.18;6.25;;;-0.80;99.90;;;;;;4830328;29;20239;-78
2024/03/20 03:42:20;;;;;;;6.80;6.30;;;-0.80;99.90;;;;;;4827965;29;20205;-78
2024/03/20 03:44:46;;;;;;;15.02;11.43;;;-0.90;99.90;;;;;;4823498;29;20449;-78
2024/03/20 03:47:12;;;;;;;2.47;2.38;;;-0.90;99.90;;;;;;4830705;29;20581;-77
2024/03/20 03:49:38;;;;;;;6.20;5.80;;;-0.90;99.90;;;;;;4833990;29;20265;-80
2024/03/20 03:52:04;;;;;;;5.93;5.45;;;-0.90;99.90;;;;;;4821462;29;20500;-77
2024/03/20 03:54:30;;;;;;;6.95;6.03;;;-0.90;99.90;;;;;;4825350;29;20245;-78
2024/03/20 03:56:57;;;;;;;14.15;8.52;;;-0.80;99.90;;;;;;4837988;29;20211;-76
2024/03/20 03:59:23;;;;;;;7.53;6.95;;;-0.80;99.90;;;;;;4825801;29;20198;-78
2024/03/20 04:01:50;;;;;;;6.57;6.00;;;-0.90;99.90;;;;;;4832782;29;20220;-78
2024/03/20 04:04:16;;;;;;;5.60;5.10;;;-0.80;99.90;;;;;;4826236;29;20209;-78
2024/03/20 04:06:43;;;;;;;5.50;5.00;;;-0.90;99.90;;;;;;4824266;29;20372;-79
2024/03/20 04:09:10;;;;;;;8.00;5.53;;;-1.00;99.90;;;;;;4832535;29;20870;-79
2024/03/20 04:11:39;;;;;;;3.40;3.08;;;-1.00;99.90;;;;;;4831357;29;20238;-79
2024/03/20 04:14:07;;;;;;;4.97;4.32;;;-1.00;99.90;;;;;;4833921;29;20220;-78
2024/03/20 04:16:34;;;;;;;5.00;4.53;;;-1.10;99.90;;;;;;4834416;29;20245;-81
2024/03/20 04:19:01;;;;;;;3.65;3.35;;;-1.20;99.90;;;;;;4854447;29;20206;-81
2024/03/20 04:21:27;;;;;;;10.85;4.68;;;-1.10;99.90;;;;;;4854170;29;20215;-79
2024/03/20 04:23:53;;;;;;;8.45;7.47;;;-1.10;99.90;;;;;;4844887;29;20252;-79
2024/03/20 04:26:20;;;;;;;3.35;3.10;;;-0.90;99.90;;;;;;4833541;29;20218;-80
2024/03/20 04:28:46;;;;;;;17.35;6.18;;;-0.90;99.90;;;;;;4833463;29;20217;-79
2024/03/20 04:31:14;;;;;;;5.33;5.03;;;-1.00;99.90;;;;;;4832152;29;20225;-79
2024/03/20 04:33:41;;;;;;;5.68;5.38;;;-1.10;99.90;;;;;;4831830;29;20214;-79
2024/03/20 04:36:09;;;;;;;9.88;8.48;;;-1.30;99.90;;;;;;4838291;29;20210;-77
2024/03/20 04:38:36;;;;;;;6.88;6.38;;;-1.30;99.90;;;;;;4816476;29;20228;-80
2024/03/20 04:41:05;;;;;;;6.55;6.03;;;-1.30;99.90;;;;;;4834428;29;20271;-80
2024/03/20 04:43:34;;;;;;;6.53;6.03;;;-1.30;99.90;;;;;;4838826;29;20246;-78
2024/03/20 04:46:00;;;;;;;6.10;5.35;;;-1.40;99.90;;;;;;4833769;29;20211;-78
2024/03/20 04:48:26;;;;;;;6.60;6.05;;;-1.40;99.90;;;;;;4827908;29;20700;-78
2024/03/20 04:50:53;;;;;;;4.05;3.85;;;-1.30;99.90;;;;;;4815655;29;20216;-78
2024/03/20 04:53:21;;;;;;;6.60;6.10;;;-1.40;99.90;;;;;;4831526;29;20209;-77
2024/03/20 04:55:48;;;;;;;5.35;5.03;;;-1.40;99.90;;;;;;4831419;29;20217;-78
2024/03/20 04:58:15;;;;;;;6.50;5.82;;;-1.20;99.90;;;;;;4831016;29;20207;-79
2024/03/20 05:00:41;;;;;;;14.63;9.23;;;-1.10;99.90;;;;;;4828515;29;20423;-79
2024/03/20 05:03:07;;;;;;;6.47;6.10;;;-1.10;99.90;;;;;;4815017;29;20269;-78
2024/03/20 05:05:33;;;;;;;7.53;6.47;;;-1.30;99.90;;;;;;4829741;29;20309;-78
2024/03/20 05:07:59;;;;;;;9.80;8.93;;;-1.00;99.90;;;;;;4828926;29;20833;-78
2024/03/20 05:10:24;;;;;;;6.40;5.50;;;-1.10;99.90;;;;;;4828812;29;20476;-76
2024/03/20 05:12:50;;;;;;;8.38;5.88;;;-1.00;99.90;;;;;;4839272;29;20248;-78
2024/03/20 05:15:16;;;;;;;20.53;11.70;;;-1.10;99.90;;;;;;4825611;29;20510;-79
2024/03/20 05:17:42;;;;;;;9.98;7.40;;;-0.90;99.90;;;;;;4833983;29;20234;-78
2024/03/20 05:20:09;;;;;;;8.85;4.50;;;-0.90;99.90;;;;;;4835751;29;20481;-79
2024/03/20 05:22:35;;;;;;;10.52;9.50;;;-0.80;99.90;;;;;;4831441;29;20221;-80
2024/03/20 05:25:01;;;;;;;16.15;8.45;;;-0.70;99.90;;;;;;4815857;29;20201;-80
2024/03/20 05:27:27;;;;;;;5.38;5.10;;;-0.60;99.90;;;;;;4831250;29;20254;-82
2024/03/20 05:29:54;;;;;;;11.05;5.90;;;-0.80;99.90;;;;;;4828794;29;20204;-78
2024/03/20 05:32:22;;;;;;;8.77;7.97;;;-0.60;99.90;;;;;;4828128;29;20236;-80
2024/03/20 05:34:48;;;;;;;8.32;7.57;;;-0.40;99.90;;;;;;4830059;29;20242;-79
2024/03/20 05:37:14;;;;;;;15.47;8.97;;;-0.20;99.90;;;;;;4828589;29;20231;-77
2024/03/20 05:39:44;;;;;;;7.25;6.57;;;0.40;99.90;;;;;;4829005;29;20442;-79
2024/03/20 05:42:10;;;;;;;5.70;4.90;;;0.80;99.90;;;;;;4833729;29;20231;-80
2024/03/20 05:44:38;;;;;;;7.95;7.25;;;1.20;99.90;;;;;;4829284;29;20687;-82
2024/03/20 05:47:04;;;;;;;12.02;5.65;;;2.00;99.90;;;;;;4828983;29;20220;-81
2024/03/20 05:49:30;;;;;;;3.65;3.53;;;1.90;99.90;;;;;;4824048;29;20207;-80
2024/03/20 05:51:56;;;;;;;3.63;3.53;;;2.00;99.90;;;;;;4825004;29;20231;-78
2024/03/20 05:54:22;;;;;;;5.40;4.90;;;2.80;99.90;;;;;;4828409;29;20275;-78
2024/03/20 05:56:49;;;;;;;3.95;3.72;;;3.00;99.90;;;;;;4831344;29;20207;-77
2024/03/20 05:59:17;;;;;;;10.00;7.15;;;3.60;99.90;;;;;;4830573;29;20370;-79
2024/03/20 06:01:44;;;;;;;4.88;4.43;;;4.10;99.90;;;;;;4831405;29;20212;-78
2024/03/20 06:04:10;;;;;;;8.40;6.43;;;5.00;99.90;;;;;;4816114;29;20425;-79
2024/03/20 06:06:36;;;;;;;3.57;3.37;;;4.80;99.90;;;;;;4823454;29;20197;-79
2024/03/20 06:09:03;;;;;;;5.87;5.57;;;5.10;99.90;;;;;;4831031;29;20205;-79
2024/03/20 06:11:42;;;;;;;2.60;2.50;;;4.40;99.90;;;;;;4815412;29;20490;-80
2024/03/20 06:14:09;;;;;;;1.73;1.63;;;4.20;99.90;;;;;;4830664;29;20199;-79
2024/03/20 06:16:36;;;;;;;4.05;3.78;;;4.50;99.90;;;;;;4831728;29;20203;-80
2024/03/20 06:19:05;;;;;;;2.08;1.98;;;4.90;99.90;;;;;;4831002;29;20229;-78
2024/03/20 06:21:32;;;;;;;3.25;3.15;;;4.40;99.90;;;;;;4831238;29;20216;-80
2024/03/20 06:23:58;;;;;;;0.70;0.70;;;4.90;99.90;;;;;;4832760;29;20236;-80
2024/03/20 06:26:24;;;;;;;4.00;3.80;;;4.10;99.90;;;;;;4836766;29;20202;-80
2024/03/20 06:28:51;;;;;;;4.88;4.68;;;4.40;99.90;;;;;;4832199;29;20399;-80
2024/03/20 06:31:17;;;;;;;2.50;2.40;;;4.30;99.90;;;;;;4834525;29;20277;-80
2024/03/20 06:33:48;;;;;;;7.15;6.63;;;4.10;99.90;;;;;;4836724;29;20515;-79
2024/03/20 06:36:14;;;;;;;1.88;1.80;;;4.10;99.90;;;;;;4833487;29;20400;-81
2024/03/20 06:38:40;;;;;;;1.35;1.35;;;3.80;99.90;;;;;;4842551;29;20223;-79
2024/03/20 06:41:08;;;;;;;2.10;2.10;;;3.50;99.90;;;;;;4838249;29;20224;-81
2024/03/20 06:43:34;;;;;;;4.97;3.80;;;4.30;99.90;;;;;;4833654;29;20208;-82
2024/03/20 06:46:06;;;;;;;6.28;5.82;;;5.80;99.90;;;;;;4830808;29;20238;-81
2024/03/20 06:48:34;;;;;;;2.78;2.67;;;6.00;99.90;;;;;;4833308;29;20252;-78
2024/03/20 06:51:00;;;;;;;3.67;3.47;;;6.60;99.90;;;;;;4821219;29;20238;-84
2024/03/20 06:53:27;;;;;;;2.88;2.78;;;7.70;99.90;;;;;;4810403;29;20219;-85
2024/03/20 06:55:55;;;;;;;4.18;3.80;;;7.70;99.90;;;;;;4828426;29;20207;-82
2024/03/20 06:58:22;;;;;;;1.92;1.83;;;8.60;99.90;;;;;;4830646;29;20508;-83
2024/03/20 07:00:49;;;;;;;4.93;4.63;;;7.10;99.90;;;;;;4831268;29;20203;-82
2024/03/20 07:03:16;;;;;;;3.63;3.33;;;7.30;99.90;;;;;;4833308;29;20203;-83
2024/03/20 07:05:44;;;;;;;5.50;5.10;;;8.30;96.20;;;;;;4829558;29;20207;-84
2024/03/20 07:08:10;;;;;;;3.13;2.60;;;8.00;96.20;;;;;;4817388;29;20228;-84
2024/03/20 07:10:37;;;;;;;4.88;4.40;;;8.70;94.30;;;;;;4833712;29;20514;-83
2024/03/20 07:13:09;;;;;;;2.53;2.42;;;10.30;91.30;;;;;;4817915;29;20272;-85
2024/03/20 07:15:38;;;;;;;5.60;5.40;;;11.90;81.30;;;;;;4834036;29;20672;-91
2024/03/20 07:18:20;;;;;;;2.10;2.00;;;12.20;78.60;;;;;;4836625;29;20453;-85
2024/03/20 07:20:48;;;;;;;2.20;2.10;;;11.90;77.50;;;;;;4808067;29;20451;-83
2024/03/20 07:23:16;;;;;;;7.53;4.97;;;11.90;77.60;;;;;;4833764;29;20436;-87
2024/03/20 07:25:43;;;;;;;7.60;5.80;;;12.00;77.50;;;;;;4799349;29;20447;-87
2024/03/20 07:28:12;;;;;;;4.90;4.60;;;11.90;76.90;;;;;;4817577;29;20421;-86
2024/03/20 07:30:41;;;;;;;9.77;8.97;;;11.60;76.60;;;;;;4826866;29;20410;-87
2024/03/20 07:33:09;;;;;;;1.70;1.70;;;11.70;77.40;;;;;;4839224;29;20458;-84
2024/03/20 07:35:44;;;;;;;2.87;2.77;;;11.00;79.10;;;;;;4825428;29;20440;-86
2024/03/20 07:38:13;;;;;;;3.80;3.60;;;10.30;81.00;;;;;;4825805;29;20445;-88
2024/03/20 07:40:40;;;;;;;4.10;3.90;;;11.10;81.10;;;;;;4814684;29;20448;-87
2024/03/20 07:43:07;;;;;;;4.93;4.60;;;10.90;81.70;;;;;;4826590;29;20435;-87
2024/03/20 07:45:47;;;;;;;6.97;4.30;;;12.20;79.40;;;;;;4829999;29;20437;-90
2024/03/20 07:48:13;;;;;;;3.37;3.20;;;12.40;75.70;;;;;;4815979;29;20444;-88
2024/03/20 07:50:41;;;;;;;7.07;6.20;;;13.30;74.10;;;;;;4843796;29;20476;-88
2024/03/20 07:53:10;;;;;;;4.70;3.73;;;12.40;75.70;;;;;;4821746;29;20534;-88
2024/03/20 07:58:19;;;;;;;6.60;6.03;;;13.20;73.40;;;;;;4902435;23;20460;-89
2024/03/20 08:00:46;;;;;;;3.57;3.43;;;15.40;71.40;;;;;;4869818;29;20478;-90
2024/03/20 08:03:13;;;;;;;6.97;6.40;;;16.00;69.20;;;;;;4868848;29;20556;-90
2024/03/20 08:05:39;;;;;;;5.83;5.50;;;17.00;66.00;;;;;;4867691;29;20415;-87
2024/03/20 08:08:08;;;;;;;4.10;3.90;;;17.10;64.30;;;;;;5032471;23;20495;-88
2024/03/20 08:10:35;;;;;;;4.87;4.57;;;15.70;64.00;;;;;;4884061;29;20194;-88
2024/03/20 08:13:09;;;;;;;5.63;3.10;;;15.10;68.80;;;;;;4904653;29;20456;-88
2024/03/20 08:15:39;;;;;;;10.27;6.17;;;16.30;67.10;;;;;;4880563;29;20493;-89
2024/03/20 08:18:11;;;;;;;4.10;3.90;;;15.50;63.70;;;;;;5066863;23;20500;-88
2024/03/20 08:20:39;;;;;;;4.50;4.20;;;14.00;67.50;;;;;;4902736;29;20445;-87
2024/03/20 08:23:06;;;;;;;6.40;4.50;;;12.10;74.30;;;;;;4890162;29;20790;-87
2024/03/20 08:25:33;;;;;;;6.10;4.40;;;11.60;76.90;;;;;;4889904;29;20455;-88
2024/03/20 08:28:00;;;;;;;1.50;1.50;;;11.20;77.10;;;;;;4875717;29;20997;-88
2024/03/20 08:30:27;;;;;;;2.13;2.03;;;11.30;76.90;;;;;;4892808;29;20418;-88
2024/03/20 08:32:53;;;;;;;4.10;3.53;;;10.40;78.00;;;;;;4890062;29;20480;-87
2024/03/20 08:35:20;;;;;;;3.50;3.30;;;10.20;79.80;;;;;;4890821;29;20792;-89
2024/03/20 08:37:49;;;;;;;2.57;2.47;;;10.70;80.30;;;;;;4876504;29;20435;-89
2024/03/20 08:40:16;;;;;;;7.80;3.87;;;11.10;79.60;;;;;;4898843;29;20464;-88
2024/03/20 08:42:43;;;;;;;3.47;3.27;;;11.20;78.40;;;;;;4892346;29;20446;-88
2024/03/20 08:45:10;;;;;;;4.83;3.37;;;11.20;79.70;;;;;;4890348;29;20453;-88
2024/03/20 08:47:37;;;;;;;2.20;2.10;;;11.10;78.80;;;;;;5139542;23;20462;-88
2024/03/20 08:50:07;;;;;;;4.30;4.00;;;11.20;78.60;;;;;;4900951;29;20450;-89
2024/03/20 08:52:36;;;;;;;4.10;3.90;;;11.10;79.80;;;;;;5121451;23;20480;-88
2024/03/20 08:55:03;;;;;;;1.70;1.70;;;11.80;78.30;;;;;;4878739;29;20403;-89
2024/03/20 08:57:30;;;;;;;7.20;6.63;;;12.00;75.90;;;;;;4896732;29;20416;-87
2024/03/20 09:00:01;;;;;;;3.37;3.20;;;11.70;76.70;;;;;;4885943;29;20457;-87
2024/03/20 09:02:28;;;;;;;1.77;1.67;;;11.70;77.20;;;;;;4891652;29;20453;-88
2024/03/20 09:04:55;;;;;;;4.87;4.57;;;11.70;75.70;;;;;;4884207;29;20416;-87
2024/03/20 09:07:23;;;;;;;4.10;3.80;;;11.70;76.40;;;;;;4897495;29;20824;-89
2024/03/20 09:09:50;;;;;;;5.77;5.33;;;12.20;78.60;;;;;;4900111;29;20454;-90
2024/03/20 09:12:16;;;;;;;8.13;4.17;;;12.10;77.50;;;;;;5007103;23;20453;-89
2024/03/20 09:14:44;;;;;;;3.03;2.73;;;11.90;77.30;;;;;;4897684;29;20451;-88
2024/03/20 09:17:11;;;;;;;2.43;2.33;;;12.10;76.90;;;;;;4894903;29;20419;-88
2024/03/20 09:19:37;;;;;;;3.73;3.53;;;11.50;78.00;;;;;;4917762;29;20467;-88
2024/03/20 09:22:04;;;;;;;3.90;3.70;;;11.30;76.50;;;;;;4891957;29;20676;-89
2024/03/20 09:24:31;;;;;;;2.00;1.90;;;12.00;75.90;;;;;;4876687;29;20212;-87
2024/03/20 09:26:58;;;;;;;5.20;4.80;;;12.60;73.00;;;;;;4890121;29;20449;-88
2024/03/20 09:29:25;;;;;;;2.03;1.93;;;12.30;72.70;;;;;;4894919;29;20488;-88
2024/03/20 09:31:50;;;;;;;3.13;2.80;;;13.00;72.10;;;;;;4888659;29;20476;-87
2024/03/20 09:34:23;;;;;;;1.30;1.30;;;12.30;72.60;;;;;;4891177;29;20419;-88
2024/03/20 09:36:49;;;;;;;2.90;2.80;;;12.30;75.40;;;;;;4882962;29;20420;-88
2024/03/20 09:39:15;;;;;;;2.17;1.97;;;12.40;75.70;;;;;;4870827;29;20446;-88
2024/03/20 09:41:41;;;;;;;2.53;2.43;;;12.60;72.70;;;;;;4885670;29;20449;-87
2024/03/20 09:44:12;;;;;;;1.63;1.53;;;11.80;74.90;;;;;;4891656;29;20418;-87
2024/03/20 09:46:38;;;;;;;5.33;4.83;;;11.80;75.20;;;;;;4892912;29;20445;-89
2024/03/20 09:49:04;;;;;;;6.03;5.57;;;11.60;73.40;;;;;;4891691;29;20418;-87
2024/03/20 09:51:30;;;;;;;2.17;2.07;;;12.00;74.00;;;;;;4891518;29;20489;-88
2024/03/20 09:53:58;;;;;;;2.27;2.00;;;11.70;75.60;;;;;;4870803;29;20533;-88
2024/03/20 10:01:36;;;;;;;3.53;3.33;;;11.20;75.20;;;;;;5132770;23;20694;-86
2024/03/20 10:04:10;;;;;;;3.70;3.50;;;11.10;74.80;;;;;;5171822;23;20469;-86
2024/03/20 10:06:39;;;;;;;2.67;2.40;;;11.80;75.20;;;;;;5000705;23;20467;-87
2024/03/20 10:09:07;;;;;;;4.90;4.03;;;12.00;74.50;;;;;;4858816;29;20448;-88
2024/03/20 10:22:18;;;;;;;2.15;2.05;;;11.40;74.60;;;;;;4874011;29;20235;-86
2024/03/20 10:24:45;;;;;;;4.87;4.57;;;11.70;73.90;;;;;;4876005;29;20243;-85
2024/03/20 10:32:38;;;;;;;2.97;2.67;;;12.50;72.60;;;;;;4892491;29;20468;-87
2024/03/20 10:35:08;;;;;;;2.60;2.40;;;12.00;72.70;;;;;;4892094;29;20436;-87
2024/03/20 10:37:36;;;;;;;6.63;4.50;;;12.10;72.00;;;;;;5172960;23;20474;-86
2024/03/20 10:42:49;;;;;;;1.53;1.53;;;11.90;71.60;;;;;;5116502;23;20551;-87
2024/03/20 10:58:40;;;;;;;2.73;2.40;;;12.70;70.00;;;;;;4944177;23;20466;-86
2024/03/20 11:01:12;;;;;;;3.20;3.10;;;12.80;69.20;;;;;;4883129;29;20418;-84
2024/03/20 11:08:56;;;;;;;2.67;2.57;;;12.80;69.50;;;;;;5031171;23;20587;-85
2024/03/20 11:11:30;;;;;;;2.60;2.03;;;12.80;68.00;;;;;;4867862;29;20448;-85
2024/03/20 11:14:07;;;;;;;1.63;1.63;;;12.80;67.10;;;;;;5202665;23;20447;-86
2024/03/20 11:16:33;;;;;;;3.20;3.10;;;12.70;68.10;;;;;;4863851;29;20430;-85
2024/03/20 11:29:56;;;;;;;3.57;3.37;;;12.60;67.80;;;;;;5637619;23;20565;-85
2024/03/20 11:37:41;;;;;;;4.03;3.70;;;12.20;67.00;;;;;;5382069;23;20660;-87
2024/03/20 11:40:11;;;;;;;2.73;2.63;;;12.00;67.20;;;;;;4886797;29;20448;-87
2024/03/20 11:50:30;;;;;;;2.80;2.70;;;12.00;67.70;;;;;;4851497;29;20478;-89
2024/03/20 11:55:31;;;;;;;4.13;3.85;;;12.30;69.10;;;;;;5549541;23;1888114;-87
2024/03/20 12:00:40;;;;;;;1.87;1.77;;;12.10;66.70;;;;;;5154583;23;20209;-88
2024/03/20 12:22:19;;;;;;;5.70;5.30;;;13.30;63.40;;;;;;5470697;23;20605;-90
2024/03/20 12:30:13;;;;;;;3.70;3.47;;;13.40;63.00;;;;;;5011887;23;20529;-86
2024/03/20 12:40:39;;;;;;;2.20;2.10;;;13.40;61.70;;;;;;5803054;23;21212;-90
2024/03/20 12:56:23;;;;;;;2.20;2.10;;;13.50;59.80;;;;;;5725104;23;20881;-90
2024/03/20 13:14:56;;;;;;;1.00;1.00;;;13.50;60.00;;;;;;4857798;29;20478;-86
2024/03/20 13:17:23;;;;;;;1.60;1.60;;;13.50;59.10;;;;;;5484250;23;20423;-86
2024/03/20 13:22:34;;;;;;;1.33;1.33;;;13.60;58.70;;;;;;5352793;23;20427;-88
2024/03/20 13:25:00;;;;;;;1.57;1.57;;;13.60;58.90;;;;;;5115147;23;20500;-87
2024/03/20 13:27:29;;;;;;;1.70;1.63;;;13.50;60.00;;;;;;4895976;29;20766;-88
2024/03/20 13:29:59;;;;;;;0.80;0.80;;;13.50;59.70;;;;;;5325727;23;20561;-87
2024/03/20 13:35:14;;;;;;;4.10;2.80;;;13.40;60.40;;;;;;5475061;23;20435;-89
2024/03/20 13:40:16;;;;;;;1.83;1.73;;;13.70;59.40;;;;;;5837379;23;20712;-88
2024/03/20 13:48:01;;;;;;;2.23;2.13;;;13.60;60.20;;;;;;5477155;23;20454;-89
2024/03/20 13:55:39;;;;;;;3.00;2.80;;;13.50;59.70;;;;;;4884025;29;20241;-87
2024/03/20 14:14:11;;;;;;;0.97;0.97;;;13.70;59.30;;;;;;5398881;23;20440;-87
2024/03/20 14:16:39;;;;;;;1.60;1.60;;;13.90;59.60;;;;;;4898558;29;20464;-88
2024/03/20 14:21:42;;;;;;;3.10;2.90;;;13.80;58.80;;;;;;5233238;23;20482;-90
2024/03/20 14:32:12;;;;;;;1.47;1.40;;;13.70;60.20;;;;;;5748878;23;21448;-89
2024/03/20 14:34:38;;;;;;;9.00;3.17;;;13.70;58.90;;;;;;5644336;23;21658;-90
2024/03/20 14:37:14;;;;;;;24.47;5.27;;;13.50;58.40;;;;;;4893177;29;20478;-88
2024/03/20 14:47:49;;;;;;;2.47;2.27;;;13.40;58.00;;;;;;5566536;23;20540;-88
2024/03/20 14:50:17;;;;;;;2.83;2.67;;;13.30;56.60;;;;;;4861815;29;20610;-89
2024/03/20 14:52:44;;;;;;;1.17;1.17;;;13.30;57.90;;;;;;4858194;29;20488;-88
2024/03/20 14:55:23;;;;;;;1.43;1.43;;;13.10;59.10;;;;;;4854912;29;20397;-89
2024/03/20 14:57:49;;;;;;;2.20;2.10;;;13.00;58.00;;;;;;4856588;29;20421;-89
2024/03/20 15:08:26;;;;;;;3.87;3.67;;;12.70;59.70;;;;;;5120499;23;20448;-87
2024/03/20 15:35:15;;;;;;;3.33;2.30;;;12.50;59.40;;;;;;5282063;23;20960;-87
2024/03/20 15:37:44;;;;;;;5.57;2.40;;;12.50;58.70;;;;;;5117991;23;20531;-87
2024/03/20 15:40:12;;;;;;;3.00;2.83;;;12.50;59.20;;;;;;5013350;23;20462;-87
2024/03/20 15:42:38;;;;;;;2.50;2.40;;;12.50;59.30;;;;;;4896941;29;20432;-87
2024/03/20 15:45:08;;;;;;;1.70;1.40;;;12.50;59.10;;;;;;4895580;29;20474;-86
2024/03/20 15:55:37;;;;;;;2.60;2.50;;;12.50;62.60;;;;;;5029568;23;20546;-86
2024/03/20 16:11:24;;;;;;;1.27;1.27;;;12.30;61.90;;;;;;4969578;23;20568;-87
2024/03/20 16:13:51;;;;;;;2.30;2.20;;;12.30;61.70;;;;;;5686039;23;20426;-88
2024/03/20 16:16:20;;;;;;;2.00;1.90;;;12.20;63.00;;;;;;4879912;29;20448;-89
2024/03/20 16:18:47;;;;;;;4.97;3.10;;;12.10;63.50;;;;;;4893060;29;20726;-86
2024/03/20 16:21:13;;;;;;;1.50;1.47;;;12.00;63.30;;;;;;4904937;29;20435;-89
2024/03/20 16:23:42;;;;;;;1.53;1.43;;;12.00;63.50;;;;;;4893391;29;20494;-86
2024/03/20 16:29:58;;;;;;;1.97;1.87;;;11.70;64.20;;;;;;4905146;29;20741;-86
2024/03/20 16:36:02;;;;;;;0.90;0.90;;;11.50;66.00;;;;;;4873417;29;20405;-87
2024/03/20 16:38:30;;;;;;;1.77;1.67;;;11.50;66.50;;;;;;4880582;29;20450;-86
2024/03/20 16:40:56;;;;;;;2.00;1.90;;;11.30;66.20;;;;;;4880720;29;20436;-87
2024/03/20 16:43:24;;;;;;;0.90;0.90;;;11.20;67.10;;;;;;4894881;29;20566;-87
2024/03/20 16:45:57;;;;;;;1.83;1.83;;;11.00;68.50;;;;;;4895284;29;20754;-88
2024/03/20 16:48:53;;;;;;;1.00;1.00;;;10.90;69.70;;;;;;4897137;29;20442;-89
2024/03/20 16:51:20;;;;;;;1.33;1.33;;;10.90;68.20;;;;;;4865304;29;20218;-90
2024/03/20 16:53:48;;;;;;;1.00;1.00;;;10.90;69.90;;;;;;4889251;29;20206;-87
2024/03/20 16:56:17;;;;;;;3.75;3.45;;;11.00;70.60;;;;;;4896543;29;20199;-88
2024/03/20 16:58:43;;;;;;;2.13;2.03;;;10.80;71.60;;;;;;4880550;29;20198;-87
2024/03/20 17:01:24;;;;;;;1.35;1.30;;;10.70;73.00;;;;;;4897239;29;20269;-87